Jemez Springs, Valles Caldera, New Mexico Weather observations

Data are for 10 minute period ending at time listed.
 Day   Time   Solar   Ave.   Ave.  Ave.  Vector  Max.   Baro.   Total    
  of    of     Rad.   Air    Rel.  Wind   Wind   Wind  Press.  Precip.   
Year   Day            Temp.  Hum.  Speed  Dir.   Gust                    
2017   (MST)  Kw/m2    F      %     mph   deg.    mph    mb.     in.     
-------------------------------------------------------------------------
  58    0:30   0.00   27.2    68    3.9     7     6.6   803.2    0.00 
  58    0:40   0.00   27.3    67    2.0   352     8.4   803.2    0.00 
  58    0:50   0.00   26.6    69    2.0    38     5.4   803.2    0.00 
  58    1:00   0.00   26.1    71    3.1    30     6.6   803.2    0.00 
  58    1:10   0.00   26.1    71    4.5    14     7.8   803.2    0.00 
  58    1:20   0.00   26.0    71    3.5    19     5.4   803.3    0.00 
  58    1:30   0.00   25.9    72    4.0    26     6.6   803.2    0.00 
  58    1:40   0.00   26.4    71    5.2     6     9.0   803.2    0.00 
  58    1:50   0.00   26.5    70    5.4     7     9.6   803.2    0.00 
  58    2:00   0.00   26.3    71    5.1    17     9.0   803.1    0.00 
  58    2:10   0.00   26.3    72    5.9    24     9.0   803.0    0.00 
  58    2:20   0.00   27.0    70    4.2    18     7.2   802.9    0.00 
  58    2:30   0.00   27.5    69    5.3   355     9.6   802.9    0.00 
  58    2:40   0.00   27.9    68    5.0    12     8.4   802.9    0.00 
  58    2:50   0.00   28.1    69    4.8    17     7.8   803.0    0.00 
  58    3:00   0.00   28.5    68    5.1    14     9.0   803.1    0.00 
  58    3:10   0.00   28.7    68    5.4     4     9.6   803.0    0.00 
  58    3:20   0.00   29.0    67    3.5    46     8.4   802.9    0.00 
  58    3:30   0.00   29.3    67    5.6     6    10.2   802.7    0.00 
  58    3:40   0.00   29.5    66    4.2     8     6.6   802.8    0.00 
  58    3:50   0.00   29.5    67    3.7    37     7.2   802.8    0.00 
  58    4:00   0.00   29.7    67    4.7     5     7.2   802.7    0.00 
  58    4:10   0.00   29.5    68    4.5    22     9.6   802.5    0.00 
  58    4:20   0.00   29.5    68    5.6     5     9.0   802.5    0.00 
  58    4:30   0.00   29.5    68    5.4    17     8.4   802.7    0.00 
  58    4:40   0.00   29.6    69    4.5    18     7.2   802.7    0.00 
  58    4:50   0.00   29.6    69    4.1    44     9.0   802.7    0.00 
  58    5:00   0.00   29.9    70    3.0    12     6.0   802.7    0.00 
  58    5:10   0.00   30.2    69    3.6    12     6.6   802.7    0.00 
  58    5:20   0.00   30.3    69    1.5   102     4.5   802.7    0.00 
  58    5:30   0.00   30.0    70    2.0    50     4.2   802.8    0.00 
  58    5:40   0.00   30.0    71    2.3    29     6.0   802.8    0.00 
  58    5:50   0.00   30.0    71    2.7    41     4.2   802.7    0.00 
  58    6:00   0.00   30.0    72    3.5    20     5.4   802.7    0.00 
  58    6:10   0.00   29.8    72    3.6    33     6.0   802.6    0.00 
  58    6:20   0.00   29.9    72    5.0    16     8.4   802.7    0.00 
  58    6:30   0.00   29.9    73    4.1     8     7.8   802.7    0.00 
  58    6:40   0.00   30.2    72    2.5   358     5.4   802.9    0.00 
  58    6:50   0.01   30.1    73    1.3    32     4.2   803.0    0.00 
  58    7:00   0.02   30.1    74    3.6    32     5.4   803.2    0.00 
  58    7:10   0.02   30.6    73    4.0    26     6.0   803.3    0.00 
  58    7:20   0.03   31.2    71    3.6    19     6.6   803.3    0.00 
  58    7:30   0.07   31.8    71    3.3    26     6.0   803.3    0.00 
  58    7:40   0.10   32.7    69    3.3    20     5.4   803.4    0.00 
  58    7:50   0.14   33.8    66    2.4    18     5.4   803.6    0.00 
  58    8:00   0.20   35.7    63    0.5   325     3.0   803.7    0.00 
  58    8:10   0.20   37.3    58    0.1    99     1.2   803.9    0.00 
  58    8:20   0.27   37.4    58    1.2   145     3.6   804.0    0.00 
  58    8:30   0.26   37.7    57    2.8   167     3.6   804.1    0.00 
  58    8:40   0.24   38.4    54    2.9   186     4.8   804.2    0.00 
  58    8:50   0.27   38.8    53    3.4   173     5.4   804.1    0.00 
  58    9:00   0.23   38.6    52    4.8   170     8.4   804.1    0.00 
  58    9:10   0.21   38.4    52    5.3   189    10.2   804.0    0.00 
  58    9:20   0.23   38.4    52    5.0   192    10.2   804.0    0.00 
  58    9:30   0.25   38.8    51    6.5   192    11.9   804.0    0.00 
  58    9:40   0.29   39.1    50    7.1   191    13.7   804.1    0.00 
  58    9:50   0.38   39.5    50    7.0   184    12.8   804.1    0.00 
  58   10:00   0.41   40.5    48    7.6   178    14.3   804.0    0.00 
  58   10:10   0.45   40.8    46    7.7   179    13.1   804.0    0.00 
  58   10:20   0.49   41.4    45    8.7   187    14.3   804.0    0.00 
  58   10:30   0.66   41.6    43    9.3   184    16.1   804.0    0.00 
  58   10:40   0.57   42.7    42    9.1   189    19.1   804.0    0.00 
  58   10:50   0.40   41.9    43    9.9   171    17.9   804.2    0.00 
  58   11:00   0.36   41.4    44    9.0   180    14.3   804.2    0.00 
  58   11:10   0.31   42.0    44    6.2   187    10.2   804.2    0.00 
  58   11:20   0.27   41.4    43    9.2   187    14.9   804.3    0.00 
  58   11:30   0.25   41.5    44    6.6   179    10.8   804.3    0.00 
  58   11:40   0.26   42.1    42    7.8   180    14.9   804.3    0.00 
  58   11:50   0.31   42.1    42    8.3   185    13.7   804.3    0.00 
  58   12:00   0.42   43.2    41    7.3   180    13.7   804.2    0.00 
  58   12:10   0.48   43.1    41   10.7   190    16.7   804.1    0.00 
  58   12:20   0.52   43.4    40   10.5   172    16.7   804.0    0.00 
  58   12:30   0.37   43.7    40    8.9   176    14.9   803.9    0.00 
  58   12:40   0.70   44.7    39    8.7   185    13.7   803.6    0.00 
  58   12:50   0.94   46.3    37    9.1   179    15.5   803.3    0.00 
  58   13:00   0.64   46.5    35    8.7   165    17.9   803.0    0.00 
  58   13:10   0.44   46.1    36    7.8   171    15.5   802.9    0.00 
  58   13:20   0.62   47.1    35    8.4   180    14.9   802.9    0.00 
  58   13:30   0.55   46.7    35    9.1   177    14.3   802.7    0.00 
  58   13:40   0.35   46.5    34    9.4   178    16.7   802.7    0.00 
  58   13:50   0.36   46.7    34    6.8   180    13.7   802.6    0.00 
  58   14:00   0.32   46.8    34    5.4   173     9.0   802.5    0.00 
  58   14:10   0.33   47.1    34    4.2   161     7.8   802.4    0.00 
  58   14:20   0.29   47.7    32    5.9   168    10.2   802.2    0.00 
  58   14:30   0.23   47.8    32    5.9   174    10.2   802.1    0.00 
  58   14:40   0.19   47.7    31    6.5   179    10.2   802.0    0.00 
  58   14:50   0.19   47.8    30    6.1   184    10.8   801.8    0.00 
  58   15:00   0.20   48.3    30    4.9   174     7.8   801.6    0.00 
  58   15:10   0.19   48.5    30    5.2   174     9.6   801.5    0.00 
  58   15:20   0.16   48.3    30    5.5   187     9.0   801.4    0.00 
  58   15:30   0.10   48.4    30    2.6   187     6.0   801.2    0.00 
  58   15:40   0.06   48.4    30    3.1   196     7.8   801.2    0.00 
  58   15:50   0.04   48.2    29    4.4   181     7.8   801.3    0.00 
  58   16:00   0.03   48.1    29    3.9   170     7.2   801.4    0.00 
  58   16:10   0.03   48.1    29    2.4   182     4.8   801.4    0.00 
  58   16:20   0.03   48.0    29    1.7   184     6.6   801.3    0.00 
  58   16:30   0.03   47.9    28    1.4   120     4.8   801.2    0.00 
  58   16:40   0.03   47.6    31    2.6   328     5.4   801.1    0.00 
  58   16:50   0.02   46.9    33    5.0   354    12.5   801.1    0.00 
  58   17:00   0.01   45.9    38    7.3   350    15.5   801.6    0.00 
  58   17:10   0.01   43.4    51    9.9   336    17.9   802.1    0.00 
  58   17:20   0.01   42.1    57    7.5   342    15.5   802.5    0.00 
  58   17:30   0.01   41.4    59    6.9   360    13.1   802.6    0.00 
  58   17:40   0.01   40.6    63    5.3    13    11.3   802.6    0.00 
  58   17:50   0.01   40.6    62    5.0   355     9.0   802.6    0.00 
  58   18:00   0.00   40.9    61    5.7   346    10.2   802.6    0.00 
  58   18:10   0.00   40.7    63    6.7     2    11.3   802.6    0.00 
  58   18:20   0.00   40.5    63    4.8    10     9.6   802.7    0.00 
  58   18:30   0.00   40.6    64    5.6     7     9.6   802.6    0.00 
  58   18:40   0.00   40.7    64    3.3   355     6.0   802.6    0.00 
  58   18:50   0.00   40.5    65    4.1   346     7.8   802.6    0.00 
  58   19:00   0.00   40.0    67    5.4   356    10.2   802.6    0.00 
  58   19:10   0.00   39.7    68    4.5     8     9.0   802.6    0.00 
  58   19:20   0.00   39.4    69    5.5    16     8.4   802.7    0.00 
  58   19:30   0.00   39.3    69    4.9   360     9.6   802.7    0.00 
  58   19:40   0.00   39.4    68    4.6   355     9.0   802.7    0.00 
  58   19:50   0.00   39.3    69    4.8   358     9.0   802.7    0.00 
  58   20:00   0.00   39.1    69    4.7    16     9.0   802.8    0.00 
  58   20:10   0.00   39.0    70    4.5   351     9.0   802.7    0.00 
  58   20:20   0.00   38.9    70    3.5    24     6.6   802.6    0.00 
  58   20:30   0.00   39.1    69    4.5    10     8.4   802.5    0.00 
  58   20:40   0.00   39.1    69    3.5    20     6.6   802.5    0.00 
  58   20:50   0.00   38.9    70    2.3    35     5.4   802.6    0.00 
  58   21:00   0.00   39.0    70    1.8    25     5.4   802.6    0.00 
  58   21:10   0.00   38.9    71    1.5   342     3.6   802.7    0.00 
  58   21:20   0.00   39.5    71    3.0    94     9.6   802.7    0.00 
  58   21:30   0.00   40.9    70    2.7   216     8.4   802.8    0.00 
  58   21:40   0.00   41.6    68    2.0   213     6.6   802.7    0.00 
  58   21:50   0.00   41.5    70    2.4   121     4.8   802.7    0.00 
  58   22:00   0.00   41.0    73    2.9   127     6.3   802.7    0.00 
  58   22:10   0.00   40.5    76    2.4    26     5.4   802.7    0.00 
  58   22:20   0.00   40.0    79    0.6   300     3.0   802.5    0.00 
  58   22:30   0.00   39.4    81    1.7   328     4.8   802.2    0.00 
  58   22:40   0.00   39.0    82    2.9    19     5.4   802.1    0.00 
  58   22:50   0.00   39.0    82    2.3   338     4.8   802.1    0.00 
  58   23:00   0.00   38.9    82    3.4   356     5.4   802.0    0.00 
  58   23:10   0.00   38.5    83    4.3    15     6.6   801.8    0.00 
  58   23:20   0.00   38.3    84    3.3     2     5.4   801.6    0.00 
  58   23:30   0.00   38.4    83    2.8     9     6.0   801.7    0.00 
  58   23:40   0.00   38.4    83    3.4    10     6.0   801.6    0.00 
  58   23:50   0.00   38.3    83    4.7     4     8.4   801.5    0.00 
  59    0:00   0.00   38.1    84    4.4     5     6.6   801.4    0.00 
  59    0:10   0.00   38.0    85    4.0   340     6.0   801.2    0.00 
  59    0:20   0.00   38.1    84    4.0   356     6.6   801.1    0.00 

Return to Jemez Springs, Valles Caldera graphs page.


Western Regional Climate Center,wrcc@dri.edu